DLH717 EDDF-LIMJ
Flight info
| Callsign | DLH717 |
|---|---|
| Flight time | 1h 1m |
| Altitude | 33000 |
| Route | ANEKI2L/18 ANEKI Y163 NATOR DCT TRA DCT RIPUS DCT GERSA DCT SOSON DCT ODINA M727 SRN M858 VOG |
| Aircraft | A320/M-SDE3FGHIRWY/LB1 |
Departure
| Time | 2026-05-05 18:53 |
|---|---|
| Airport | Frankfurt Main Airport (EDDF) |
Arrival
| Time | 2026-05-05 19:55 |
|---|---|
| Airport | Genoa Cristoforo Colombo Airport (LIMJ) |
| Time | Latitude | Longitude | Altitude | Speed | Heading |
|---|---|---|---|---|---|
| 2026-05-05 18:28 | 50.04390 | 8.56168 | 362 ft | 0 kts | 155° |
| 2026-05-05 18:40 | 50.04397 | 8.56163 | 356 ft | 4 kts | 154° |
| 2026-05-05 18:41 | 50.04421 | 8.56144 | 358 ft | 4 kts | 156° |
| 2026-05-05 18:41 | 50.04444 | 8.56136 | 364 ft | 4 kts | 208° |
| 2026-05-05 18:41 | 50.04460 | 8.56155 | 358 ft | 4 kts | 238° |
| 2026-05-05 18:41 | 50.04461 | 8.56152 | 356 ft | 4 kts | 250° |
| 2026-05-05 18:42 | 50.04453 | 8.56119 | 358 ft | 1 kts | 249° |
| 2026-05-05 18:42 | 50.04453 | 8.56118 | 360 ft | 0 kts | 249° |
| 2026-05-05 18:44 | 50.04450 | 8.56106 | 356 ft | 5 kts | 249° |
| 2026-05-05 18:44 | 50.04422 | 8.56030 | 356 ft | 8 kts | 223° |
| 2026-05-05 18:44 | 50.04378 | 8.56034 | 364 ft | 6 kts | 159° |
| 2026-05-05 18:44 | 50.04306 | 8.56072 | 360 ft | 13 kts | 172° |
| 2026-05-05 18:45 | 50.04248 | 8.55966 | 357 ft | 17 kts | 248° |
| 2026-05-05 18:45 | 50.04201 | 8.55778 | 359 ft | 20 kts | 249° |
| 2026-05-05 18:45 | 50.04150 | 8.55564 | 358 ft | 22 kts | 250° |
| 2026-05-05 18:45 | 50.04095 | 8.55336 | 354 ft | 23 kts | 249° |
| 2026-05-05 18:46 | 50.04037 | 8.55093 | 360 ft | 24 kts | 250° |
| 2026-05-05 18:46 | 50.03977 | 8.54840 | 358 ft | 27 kts | 249° |
| 2026-05-05 18:46 | 50.03909 | 8.54559 | 357 ft | 29 kts | 249° |
| 2026-05-05 18:46 | 50.03817 | 8.54274 | 352 ft | 30 kts | 238° |
| 2026-05-05 18:47 | 50.03738 | 8.53963 | 345 ft | 32 kts | 250° |
| 2026-05-05 18:47 | 50.03659 | 8.53638 | 348 ft | 33 kts | 249° |
| 2026-05-05 18:47 | 50.03580 | 8.53318 | 336 ft | 26 kts | 249° |
| 2026-05-05 18:47 | 50.03525 | 8.53085 | 337 ft | 17 kts | 251° |
| 2026-05-05 18:48 | 50.03482 | 8.52901 | 335 ft | 17 kts | 245° |
| 2026-05-05 18:48 | 50.03437 | 8.52744 | 335 ft | 4 kts | 250° |
| 2026-05-05 18:48 | 50.03436 | 8.52739 | 333 ft | 0 kts | 249° |
| 2026-05-05 18:50 | 50.03435 | 8.52737 | 336 ft | 2 kts | 249° |
| 2026-05-05 18:50 | 50.03413 | 8.52643 | 336 ft | 11 kts | 249° |
| 2026-05-05 18:50 | 50.03385 | 8.52593 | 335 ft | 4 kts | 180° |
| 2026-05-05 18:50 | 50.03381 | 8.52593 | 336 ft | 0 kts | 180° |
| 2026-05-05 18:53 | 50.03137 | 8.52596 | 333 ft | 74 kts | 180° |
| 2026-05-05 18:53 | 50.02404 | 8.52603 | 335 ft | 134 kts | 179° |
| 2026-05-05 18:53 | 50.01309 | 8.52612 | 429 ft | 172 kts | 180° |
| 2026-05-05 18:53 | 50.00112 | 8.52629 | 1107 ft | 172 kts | 179° |
| 2026-05-05 18:54 | 49.98916 | 8.52691 | 1776 ft | 175 kts | 177° |
| 2026-05-05 18:54 | 49.97620 | 8.52782 | 2123 ft | 198 kts | 178° |
| 2026-05-05 18:54 | 49.96163 | 8.52888 | 2435 ft | 220 kts | 177° |
| 2026-05-05 18:54 | 49.94583 | 8.52996 | 3035 ft | 230 kts | 177° |
| 2026-05-05 18:55 | 49.92970 | 8.53116 | 3913 ft | 234 kts | 177° |
| 2026-05-05 18:55 | 49.91330 | 8.53232 | 4790 ft | 239 kts | 178° |
| 2026-05-05 18:55 | 49.89665 | 8.53347 | 5697 ft | 241 kts | 177° |
| 2026-05-05 18:55 | 49.87973 | 8.53473 | 6594 ft | 244 kts | 177° |
| 2026-05-05 18:56 | 49.86272 | 8.53602 | 7435 ft | 246 kts | 177° |
| 2026-05-05 18:56 | 49.84551 | 8.53726 | 8195 ft | 250 kts | 178° |
| 2026-05-05 18:56 | 49.82800 | 8.53843 | 9014 ft | 255 kts | 178° |
| 2026-05-05 18:56 | 49.81019 | 8.53953 | 9795 ft | 260 kts | 178° |
| 2026-05-05 18:57 | 49.79130 | 8.53958 | 10130 ft | 283 kts | 181° |
| 2026-05-05 18:57 | 49.77105 | 8.53861 | 10426 ft | 307 kts | 182° |
| 2026-05-05 18:57 | 49.74890 | 8.53712 | 10722 ft | 329 kts | 182° |
| 2026-05-05 18:57 | 49.72568 | 8.53556 | 11347 ft | 338 kts | 182° |
| 2026-05-05 18:58 | 49.70201 | 8.53409 | 12100 ft | 343 kts | 182° |
| 2026-05-05 18:58 | 49.67803 | 8.53273 | 12871 ft | 346 kts | 182° |
| 2026-05-05 18:58 | 49.65384 | 8.53145 | 13598 ft | 349 kts | 182° |
| 2026-05-05 18:58 | 49.62948 | 8.53022 | 14276 ft | 353 kts | 182° |
| 2026-05-05 18:59 | 49.60477 | 8.52906 | 14962 ft | 357 kts | 181° |
| 2026-05-05 18:59 | 49.57978 | 8.52793 | 15666 ft | 361 kts | 181° |
| 2026-05-05 18:59 | 49.55459 | 8.52667 | 16338 ft | 364 kts | 182° |
| 2026-05-05 18:59 | 49.52914 | 8.52545 | 16988 ft | 368 kts | 182° |
| 2026-05-05 19:00 | 49.50346 | 8.52419 | 17622 ft | 371 kts | 182° |
| 2026-05-05 19:00 | 49.47756 | 8.52287 | 18231 ft | 374 kts | 182° |
| 2026-05-05 19:00 | 49.45140 | 8.52152 | 18817 ft | 377 kts | 182° |
| 2026-05-05 19:00 | 49.42505 | 8.52022 | 19374 ft | 380 kts | 182° |
| 2026-05-05 19:01 | 49.39854 | 8.51890 | 19903 ft | 384 kts | 182° |
| 2026-05-05 19:01 | 49.37168 | 8.51752 | 20450 ft | 387 kts | 182° |
| 2026-05-05 19:01 | 49.34472 | 8.51620 | 20968 ft | 389 kts | 182° |
| 2026-05-05 19:01 | 49.31754 | 8.51488 | 21439 ft | 393 kts | 182° |
| 2026-05-05 19:02 | 49.29012 | 8.51353 | 21918 ft | 396 kts | 182° |
| 2026-05-05 19:02 | 49.26252 | 8.51214 | 22401 ft | 398 kts | 182° |
| 2026-05-05 19:02 | 49.23467 | 8.51072 | 22791 ft | 403 kts | 182° |
| 2026-05-05 19:02 | 49.20632 | 8.50932 | 23045 ft | 412 kts | 181° |
| 2026-05-05 19:03 | 49.17762 | 8.50796 | 23550 ft | 411 kts | 182° |
| 2026-05-05 19:03 | 49.14904 | 8.50658 | 24132 ft | 411 kts | 182° |
| 2026-05-05 19:03 | 49.12035 | 8.50519 | 24605 ft | 413 kts | 182° |
| 2026-05-05 19:03 | 49.09160 | 8.50379 | 25040 ft | 415 kts | 182° |
| 2026-05-05 19:04 | 49.06269 | 8.50232 | 25451 ft | 417 kts | 182° |
| 2026-05-05 19:04 | 49.03362 | 8.50089 | 25847 ft | 419 kts | 182° |
| 2026-05-05 19:04 | 49.00440 | 8.49946 | 26231 ft | 422 kts | 182° |
| 2026-05-05 19:04 | 48.97491 | 8.49807 | 26633 ft | 423 kts | 182° |
| 2026-05-05 19:05 | 48.94538 | 8.49666 | 26990 ft | 427 kts | 182° |
| 2026-05-05 19:05 | 48.91563 | 8.49520 | 27370 ft | 429 kts | 182° |
| 2026-05-05 19:05 | 48.88572 | 8.49374 | 27747 ft | 431 kts | 182° |
| 2026-05-05 19:05 | 48.85566 | 8.49225 | 28103 ft | 434 kts | 182° |
| 2026-05-05 19:06 | 48.82591 | 8.49077 | 28452 ft | 435 kts | 182° |
| 2026-05-05 19:06 | 48.79556 | 8.48933 | 28800 ft | 438 kts | 181° |
| 2026-05-05 19:06 | 48.76511 | 8.48792 | 29134 ft | 438 kts | 181° |
| 2026-05-05 19:06 | 48.73455 | 8.48644 | 29441 ft | 441 kts | 182° |
| 2026-05-05 19:07 | 48.70383 | 8.48496 | 29741 ft | 443 kts | 182° |
| 2026-05-05 19:07 | 48.67303 | 8.48352 | 30025 ft | 444 kts | 182° |
| 2026-05-05 19:07 | 48.64206 | 8.48201 | 30295 ft | 446 kts | 182° |
| 2026-05-05 19:07 | 48.61092 | 8.48049 | 30577 ft | 448 kts | 182° |
| 2026-05-05 19:08 | 48.57967 | 8.47896 | 30848 ft | 451 kts | 182° |
| 2026-05-05 19:08 | 48.54835 | 8.47737 | 31117 ft | 452 kts | 182° |
| 2026-05-05 19:08 | 48.51689 | 8.47586 | 31402 ft | 453 kts | 182° |
| 2026-05-05 19:08 | 48.48541 | 8.47436 | 31758 ft | 451 kts | 182° |
| 2026-05-05 19:09 | 48.45406 | 8.47288 | 32114 ft | 451 kts | 182° |
| 2026-05-05 19:09 | 48.42270 | 8.47138 | 32455 ft | 449 kts | 182° |
| 2026-05-05 19:09 | 48.39147 | 8.46986 | 32748 ft | 449 kts | 182° |
| 2026-05-05 19:09 | 48.36013 | 8.46837 | 32836 ft | 454 kts | 182° |
| 2026-05-05 19:10 | 48.29629 | 8.46548 | 32852 ft | 462 kts | 181° |
| 2026-05-05 19:10 | 48.23195 | 8.46257 | 32850 ft | 463 kts | 182° |
| 2026-05-05 19:11 | 48.16731 | 8.45946 | 32843 ft | 465 kts | 181° |
| 2026-05-05 19:11 | 48.13983 | 8.45816 | 32854 ft | 464 kts | 182° |
| 2026-05-05 19:12 | 48.07520 | 8.45503 | 32869 ft | 464 kts | 181° |
| 2026-05-05 19:12 | 48.01056 | 8.45188 | 32880 ft | 465 kts | 182° |
| 2026-05-05 19:13 | 47.94589 | 8.44882 | 32884 ft | 465 kts | 182° |
| 2026-05-05 19:13 | 47.88126 | 8.44576 | 32884 ft | 464 kts | 182° |
| 2026-05-05 19:14 | 47.81679 | 8.44281 | 32870 ft | 463 kts | 182° |
| 2026-05-05 19:14 | 47.75283 | 8.43996 | 32879 ft | 463 kts | 181° |
| 2026-05-05 19:15 | 47.68848 | 8.43778 | 32887 ft | 460 kts | 178° |
| 2026-05-05 19:15 | 47.62454 | 8.44649 | 32862 ft | 463 kts | 174° |
| 2026-05-05 19:16 | 47.56060 | 8.45588 | 32876 ft | 462 kts | 174° |
| 2026-05-05 19:16 | 47.49660 | 8.46539 | 32874 ft | 463 kts | 174° |
| 2026-05-05 19:17 | 47.43243 | 8.47483 | 32878 ft | 463 kts | 174° |
| 2026-05-05 19:17 | 47.36833 | 8.48418 | 32868 ft | 462 kts | 174° |
| 2026-05-05 19:18 | 47.30432 | 8.49358 | 32873 ft | 463 kts | 174° |
| 2026-05-05 19:18 | 47.24026 | 8.50298 | 32880 ft | 462 kts | 174° |
| 2026-05-05 19:19 | 47.20817 | 8.50763 | 33002 ft | 466 kts | 174° |
| 2026-05-05 19:19 | 47.17571 | 8.51233 | 33015 ft | 470 kts | 174° |
| 2026-05-05 19:19 | 47.11070 | 8.52174 | 36962 ft | 471 kts | 174° |
| 2026-05-05 19:20 | 47.07817 | 8.52640 | 32928 ft | 465 kts | 174° |
| 2026-05-05 19:20 | 47.04601 | 8.53111 | 32934 ft | 465 kts | 174° |
| 2026-05-05 19:20 | 46.98176 | 8.54041 | 32931 ft | 464 kts | 174° |
| 2026-05-05 19:21 | 46.91620 | 8.54984 | 32942 ft | 482 kts | 176° |
| 2026-05-05 19:21 | 46.84947 | 8.55961 | 32948 ft | 471 kts | 180° |
| 2026-05-05 19:22 | 46.81776 | 8.56435 | 32950 ft | 449 kts | 180° |
| 2026-05-05 19:22 | 46.78728 | 8.56884 | 32944 ft | 433 kts | 179° |
| 2026-05-05 19:22 | 46.72796 | 8.58412 | 32941 ft | 436 kts | 170° |
| 2026-05-05 19:23 | 46.66972 | 8.60799 | 32953 ft | 436 kts | 170° |
| 2026-05-05 19:23 | 46.61146 | 8.63214 | 32946 ft | 440 kts | 170° |
| 2026-05-05 19:24 | 46.55248 | 8.65646 | 32963 ft | 440 kts | 170° |
| 2026-05-05 19:24 | 46.49359 | 8.68056 | 32964 ft | 440 kts | 170° |
| 2026-05-05 19:25 | 46.43462 | 8.70454 | 32980 ft | 440 kts | 171° |
| 2026-05-05 19:25 | 46.37559 | 8.72858 | 32996 ft | 440 kts | 171° |
| 2026-05-05 19:26 | 46.31676 | 8.75254 | 32979 ft | 438 kts | 171° |
| 2026-05-05 19:26 | 46.25801 | 8.77631 | 32979 ft | 438 kts | 171° |
| 2026-05-05 19:27 | 46.19934 | 8.80002 | 32977 ft | 439 kts | 171° |
| 2026-05-05 19:27 | 46.14051 | 8.82380 | 32974 ft | 439 kts | 171° |
| 2026-05-05 19:28 | 46.08161 | 8.84753 | 32978 ft | 439 kts | 171° |
| 2026-05-05 19:28 | 46.02280 | 8.87129 | 32976 ft | 438 kts | 171° |
| 2026-05-05 19:29 | 45.96435 | 8.89478 | 32980 ft | 439 kts | 171° |
| 2026-05-05 19:29 | 45.90540 | 8.91830 | 32980 ft | 440 kts | 172° |
| 2026-05-05 19:30 | 45.84621 | 8.94188 | 32974 ft | 442 kts | 172° |
| 2026-05-05 19:30 | 45.78686 | 8.96552 | 32984 ft | 443 kts | 172° |
| 2026-05-05 19:31 | 45.72737 | 8.98924 | 32980 ft | 444 kts | 172° |
| 2026-05-05 19:31 | 45.66796 | 9.01282 | 32982 ft | 442 kts | 173° |
| 2026-05-05 19:32 | 45.63795 | 9.01949 | 32981 ft | 433 kts | 184° |
| 2026-05-05 19:32 | 45.60818 | 9.01873 | 32982 ft | 426 kts | 189° |
| 2026-05-05 19:32 | 45.54892 | 9.01397 | 32980 ft | 426 kts | 189° |
| 2026-05-05 19:33 | 45.49945 | 9.01024 | 32994 ft | 429 kts | 189° |
| 2026-05-05 19:33 | 45.43037 | 9.00505 | 33001 ft | 427 kts | 189° |
| 2026-05-05 19:34 | 45.38061 | 9.00138 | 32748 ft | 427 kts | 189° |
| 2026-05-05 19:34 | 45.35121 | 8.99921 | 32379 ft | 422 kts | 189° |
| 2026-05-05 19:35 | 45.29248 | 8.99487 | 31872 ft | 423 kts | 189° |
| 2026-05-05 19:35 | 45.26307 | 8.99264 | 31283 ft | 423 kts | 189° |
| 2026-05-05 19:35 | 45.23348 | 8.99035 | 30276 ft | 428 kts | 189° |
| 2026-05-05 19:35 | 45.20407 | 8.98810 | 29247 ft | 430 kts | 189° |
| 2026-05-05 19:36 | 45.17395 | 8.98581 | 28117 ft | 435 kts | 189° |
| 2026-05-05 19:36 | 45.14365 | 8.98351 | 27032 ft | 438 kts | 188° |
| 2026-05-05 19:36 | 45.11308 | 8.98126 | 25985 ft | 440 kts | 187° |
| 2026-05-05 19:36 | 45.08276 | 8.97905 | 25240 ft | 434 kts | 187° |
| 2026-05-05 19:37 | 45.05278 | 8.97689 | 24461 ft | 429 kts | 187° |
| 2026-05-05 19:37 | 45.02316 | 8.97474 | 23700 ft | 424 kts | 187° |
| 2026-05-05 19:37 | 44.99362 | 8.97258 | 22955 ft | 423 kts | 186° |
| 2026-05-05 19:37 | 44.96438 | 8.97164 | 22216 ft | 421 kts | 181° |
| 2026-05-05 19:38 | 44.93529 | 8.97627 | 21469 ft | 420 kts | 176° |
| 2026-05-05 19:38 | 44.90657 | 8.98229 | 20756 ft | 415 kts | 176° |
| 2026-05-05 19:38 | 44.87816 | 8.98832 | 20174 ft | 408 kts | 175° |
| 2026-05-05 19:38 | 44.85071 | 8.99416 | 19972 ft | 391 kts | 176° |
| 2026-05-05 19:39 | 44.82452 | 8.99973 | 19972 ft | 370 kts | 176° |
| 2026-05-05 19:39 | 44.79973 | 9.00497 | 19978 ft | 352 kts | 176° |
| 2026-05-05 19:39 | 44.77612 | 9.00995 | 19977 ft | 335 kts | 176° |
| 2026-05-05 19:39 | 44.75361 | 9.01459 | 19968 ft | 321 kts | 176° |
| 2026-05-05 19:40 | 44.73167 | 9.01905 | 19973 ft | 316 kts | 177° |
| 2026-05-05 19:40 | 44.70991 | 9.02343 | 19977 ft | 316 kts | 177° |
| 2026-05-05 19:40 | 44.68724 | 9.02795 | 19538 ft | 338 kts | 176° |
| 2026-05-05 19:40 | 44.66353 | 9.03277 | 18578 ft | 350 kts | 176° |
| 2026-05-05 19:41 | 44.63897 | 9.03783 | 17480 ft | 363 kts | 175° |
| 2026-05-05 19:41 | 44.61347 | 9.04343 | 16410 ft | 376 kts | 175° |
| 2026-05-05 19:41 | 44.58730 | 9.04948 | 15452 ft | 383 kts | 174° |
| 2026-05-05 19:41 | 44.56136 | 9.05566 | 15069 ft | 374 kts | 174° |
| 2026-05-05 19:42 | 44.53588 | 9.06175 | 14543 ft | 369 kts | 174° |
| 2026-05-05 19:42 | 44.51088 | 9.06768 | 14019 ft | 361 kts | 174° |
| 2026-05-05 19:42 | 44.48621 | 9.07197 | 13664 ft | 349 kts | 183° |
| 2026-05-05 19:42 | 44.46223 | 9.07137 | 13241 ft | 344 kts | 185° |
| 2026-05-05 19:43 | 44.43833 | 9.07046 | 12690 ft | 343 kts | 185° |
| 2026-05-05 19:43 | 44.41446 | 9.06948 | 12170 ft | 342 kts | 185° |
| 2026-05-05 19:43 | 44.39119 | 9.06849 | 12053 ft | 326 kts | 185° |
| 2026-05-05 19:43 | 44.36900 | 9.06760 | 11975 ft | 313 kts | 185° |
| 2026-05-05 19:44 | 44.34778 | 9.06672 | 11891 ft | 296 kts | 186° |
| 2026-05-05 19:44 | 44.32796 | 9.06592 | 11761 ft | 274 kts | 186° |
| 2026-05-05 19:44 | 44.30983 | 9.06532 | 11502 ft | 258 kts | 186° |
| 2026-05-05 19:44 | 44.29160 | 9.06459 | 10723 ft | 265 kts | 185° |
| 2026-05-05 19:45 | 44.27328 | 9.06854 | 9935 ft | 276 kts | 162° |
| 2026-05-05 19:45 | 44.25730 | 9.08394 | 9254 ft | 287 kts | 137° |
| 2026-05-05 19:45 | 44.24415 | 9.10491 | 8571 ft | 286 kts | 136° |
| 2026-05-05 19:45 | 44.23076 | 9.12513 | 7899 ft | 284 kts | 137° |
| 2026-05-05 19:46 | 44.21633 | 9.14303 | 7252 ft | 268 kts | 149° |
| 2026-05-05 19:46 | 44.20109 | 9.15835 | 6456 ft | 271 kts | 145° |
| 2026-05-05 19:46 | 44.18870 | 9.17801 | 6085 ft | 275 kts | 122° |
| 2026-05-05 19:46 | 44.18286 | 9.20369 | 5992 ft | 283 kts | 96° |
| 2026-05-05 19:47 | 44.18571 | 9.23092 | 6004 ft | 287 kts | 70° |
| 2026-05-05 19:47 | 44.19710 | 9.25393 | 6004 ft | 291 kts | 40° |
| 2026-05-05 19:47 | 44.21445 | 9.26732 | 6008 ft | 289 kts | 13° |
| 2026-05-05 19:47 | 44.23430 | 9.26891 | 6005 ft | 284 kts | 346° |
| 2026-05-05 19:48 | 44.25293 | 9.26075 | 5997 ft | 277 kts | 337° |
| 2026-05-05 19:48 | 44.27113 | 9.25169 | 5998 ft | 275 kts | 336° |
| 2026-05-05 19:48 | 44.28793 | 9.24049 | 5895 ft | 258 kts | 322° |
| 2026-05-05 19:48 | 44.30188 | 9.22578 | 5766 ft | 247 kts | 319° |
| 2026-05-05 19:49 | 44.31528 | 9.21148 | 5641 ft | 236 kts | 319° |
| 2026-05-05 19:49 | 44.32806 | 9.19781 | 5497 ft | 228 kts | 315° |
| 2026-05-05 19:49 | 44.33811 | 9.18064 | 4986 ft | 231 kts | 293° |
| 2026-05-05 19:49 | 44.34336 | 9.16001 | 4632 ft | 222 kts | 285° |
| 2026-05-05 19:50 | 44.34803 | 9.13968 | 4321 ft | 217 kts | 285° |
| 2026-05-05 19:50 | 44.35243 | 9.11996 | 4024 ft | 209 kts | 285° |
| 2026-05-05 19:50 | 44.35661 | 9.10076 | 3734 ft | 204 kts | 285° |
| 2026-05-05 19:50 | 44.36066 | 9.08206 | 3452 ft | 198 kts | 285° |
| 2026-05-05 19:51 | 44.36461 | 9.06384 | 3192 ft | 192 kts | 285° |
| 2026-05-05 19:51 | 44.36841 | 9.04634 | 2929 ft | 186 kts | 286° |
| 2026-05-05 19:51 | 44.37215 | 9.02912 | 2669 ft | 184 kts | 286° |
| 2026-05-05 19:51 | 44.37608 | 9.01242 | 2371 ft | 178 kts | 291° |
| 2026-05-05 19:52 | 44.38082 | 8.99687 | 2128 ft | 166 kts | 291° |
| 2026-05-05 19:52 | 44.38446 | 8.98270 | 1916 ft | 150 kts | 286° |
| 2026-05-05 19:52 | 44.38724 | 8.96890 | 1714 ft | 143 kts | 284° |
| 2026-05-05 19:52 | 44.38962 | 8.95571 | 1526 ft | 141 kts | 283° |
| 2026-05-05 19:53 | 44.39194 | 8.94253 | 1327 ft | 138 kts | 282° |
| 2026-05-05 19:53 | 44.39451 | 8.92942 | 1136 ft | 139 kts | 286° |
| 2026-05-05 19:53 | 44.39724 | 8.91645 | 965 ft | 138 kts | 286° |
| 2026-05-05 19:53 | 44.39991 | 8.90363 | 784 ft | 138 kts | 285° |
| 2026-05-05 19:54 | 44.40250 | 8.89084 | 586 ft | 136 kts | 283° |
| 2026-05-05 19:54 | 44.40490 | 8.87804 | 386 ft | 136 kts | 284° |
| 2026-05-05 19:54 | 44.40741 | 8.86520 | 192 ft | 137 kts | 284° |
| 2026-05-05 19:54 | 44.40987 | 8.85247 | 27 ft | 130 kts | 284° |
| 2026-05-05 19:55 | 44.41197 | 8.84179 | 22 ft | 92 kts | 285° |
| 2026-05-05 19:55 | 44.41320 | 8.83549 | 21 ft | 42 kts | 285° |
| 2026-05-05 19:55 | 44.41373 | 8.83278 | 21 ft | 26 kts | 287° |
| 2026-05-05 19:55 | 44.41470 | 8.83098 | 21 ft | 17 kts | 331° |
| 2026-05-05 19:56 | 44.41546 | 8.83143 | 20 ft | 13 kts | 75° |
| 2026-05-05 19:56 | 44.41530 | 8.83260 | 20 ft | 12 kts | 104° |
| 2026-05-05 19:56 | 44.41505 | 8.83386 | 20 ft | 20 kts | 105° |
| 2026-05-05 19:56 | 44.41462 | 8.83606 | 20 ft | 25 kts | 105° |
| 2026-05-05 19:57 | 44.41414 | 8.83848 | 20 ft | 27 kts | 105° |
| 2026-05-05 19:57 | 44.41381 | 8.84019 | 20 ft | 28 kts | 105° |
| 2026-05-05 19:57 | 44.41311 | 8.84363 | 20 ft | 25 kts | 105° |
| 2026-05-05 19:57 | 44.41266 | 8.84604 | 20 ft | 27 kts | 105° |
| 2026-05-05 19:58 | 44.41216 | 8.84853 | 20 ft | 24 kts | 107° |
| 2026-05-05 19:58 | 44.41221 | 8.84912 | 20 ft | 5 kts | 22° |
| 2026-05-05 19:58 | 44.41275 | 8.84933 | 20 ft | 9 kts | 15° |
| 2026-05-05 19:58 | 44.41331 | 8.84956 | 20 ft | 8 kts | 24° |
| 2026-05-05 19:59 | 44.41340 | 8.85015 | 20 ft | 8 kts | 103° |
| 2026-05-05 19:59 | 44.41336 | 8.85074 | 20 ft | 7 kts | 65° |
| 2026-05-05 19:59 | 44.41386 | 8.85099 | 22 ft | 6 kts | 20° |
| 2026-05-05 19:59 | 44.41401 | 8.85105 | 20 ft | 1 kts | 15° |
| 2026-05-05 20:00 | 44.41406 | 8.85107 | 20 ft | 0 kts | 15° |